Flight Track Log - Related Links

Times and Time Zones

All times are in EDT time to prevent confusion due to time zone crossing. See the N524NK flight status page for this flight to view local times or setup timezone preferences in your user account.

Time Position Orientation Groundspeed Altitude Reporting Facility
EDT Latitude Longitude Course Direction KTS MPH feet Rate Location/Type
Thu 03:37:52 PM 19.1320 -99.4880 160° South 277 319 14,300  Level FlightAware ADS-B
Thu 03:38:32 PM 19.0800 -99.4690 161° South 298 343 15,600 1,745 Climbing FlightAware ADS-B
Thu 03:38:47 PM 19.0630 -99.4540 140° Southeast 304 350 15,900 1,600 Climbing FlightAware ADS-B
Thu 03:39:02 PM 19.0550 -99.4370 116° Southeast 300 345 16,400 1,964 Climbing FlightAware ADS-B
Thu 03:39:42 PM 19.0420 -99.3780 103° East 314 361 17,700 1,624 Climbing FlightAware ADS-B
Thu 03:40:27 PM 19.0130 -99.3140 116° Southeast 341 392 18,700 1,129 Climbing FlightAware ADS-B
Thu 03:41:07 PM 18.9810 -99.2560 120° Southeast 376 433 19,300 764 Climbing FlightAware ADS-B
Thu 03:41:22 PM 18.9760 -99.2290 101° East 388 447 19,400 764 Climbing FlightAware ADS-B
Thu 03:42:02 PM 19.0040 -99.1570 68° East 400 460 20,000 825 Climbing FlightAware ADS-B
Thu 03:42:42 PM 19.0390 -99.0830 63° Northeast 441 507 20,500 1,200 Climbing FlightAware ADS-B
Thu 03:43:27 PM 19.0720 -98.9890 70° East 450 518 21,700 1,482 Climbing FlightAware ADS-B
Thu 03:44:07 PM 19.1020 -98.9030 70° East 459 528 22,600 975 Climbing FlightAware ADS-B
Thu 03:44:47 PM 19.1380 -98.8340 61° Northeast 455 524 23,000 300 Climbing FlightAware ADS-B
Thu 03:45:27 PM 19.1740 -98.7680 60° Northeast 455 524 23,000  Level FlightAware ADS-B
Thu 03:46:17 PM 19.2180 -98.6860 60° Northeast 455 524 23,000  Level FlightAware ADS-B
Thu 03:46:57 PM 19.2540 -98.6200 60° Northeast 455 524 23,000  Level FlightAware ADS-B
Thu 03:47:37 PM 19.2900 -98.5550 60° Northeast 455 524 23,000  Level FlightAware ADS-B
Thu 03:48:17 PM 19.3260 -98.4890 60° Northeast 455 524 23,000 130 Level FlightAware ADS-B
Thu 03:50:00 PM 19.4290 -98.2558 65° Northeast  Level Estimated
Thu 03:51:00 PM 19.4889 -98.1198 65° Northeast  Level Estimated
Thu 03:52:00 PM 19.5487 -97.9837 65° Northeast  Level Estimated
Thu 03:53:00 PM 19.6084 -97.8476 65° Northeast  Level Estimated
Thu 03:54:00 PM 19.6679 -97.7113 65° Northeast  Level Estimated
Thu 03:55:00 PM 19.7274 -97.5749 65° Northeast  Level Estimated
Thu 03:56:00 PM 19.7868 -97.4384 65° Northeast  Level Estimated
Thu 03:57:00 PM 19.8460 -97.3018 65° Northeast  Level Estimated
Thu 03:58:00 PM 19.9052 -97.1651 65° Northeast  Level Estimated
Thu 03:59:00 PM 19.9643 -97.0283 65° Northeast  Level Estimated
Thu 04:00:00 PM 20.0232 -96.8914 65° Northeast  Level Estimated
Thu 04:01:00 PM 20.0820 -96.7544 65° Northeast  Level Estimated
Thu 04:02:00 PM 20.1408 -96.6173 65° Northeast  Level Estimated
Thu 04:03:00 PM 20.1994 -96.4801 65° Northeast  Level Estimated
Thu 04:04:00 PM 20.2579 -96.3428 66° East  Level Estimated
Thu 04:05:00 PM 20.3164 -96.2054 66° East  Level Estimated
Thu 04:06:00 PM 20.3747 -96.0679 66° East  Level Estimated
Thu 04:07:00 PM 20.4329 -95.9303 66° East  Level Estimated
Thu 04:08:00 PM 20.4910 -95.7926 66° East  Level Estimated
Thu 04:09:00 PM 20.5490 -95.6547 66° East  Level Estimated
Thu 04:10:00 PM 20.6068 -95.5168 66° East  Level Estimated
Thu 04:11:00 PM 20.6646 -95.3788 66° East  Level Estimated
Thu 04:12:00 PM 20.7223 -95.2406 66° East  Level Estimated
Thu 04:13:00 PM 20.7798 -95.1024 66° East  Level Estimated
Thu 04:14:00 PM 20.8373 -94.9640 66° East  Level Estimated
Thu 04:15:00 PM 20.8946 -94.8256 66° East  Level Estimated
Thu 04:16:00 PM 20.9518 -94.6870 66° East  Level Estimated
Thu 04:17:00 PM 21.0089 -94.5483 66° East  Level Estimated
Thu 04:18:00 PM 21.0659 -94.4096 66° East  Level Estimated
Thu 04:19:00 PM 21.1228 -94.2707 66° East  Level Estimated
Thu 04:20:00 PM 21.1795 -94.1317 66° East  Level Estimated
Thu 04:21:00 PM 21.2362 -93.9926 66° East  Level Estimated
Thu 04:22:00 PM 21.2927 -93.8534 66° East  Level Estimated
Thu 04:23:00 PM 21.3491 -93.7141 66° East  Level Estimated
Thu 04:24:00 PM 21.4055 -93.5747 67° East  Level Estimated
Thu 04:25:00 PM 21.4616 -93.4352 67° East  Level Estimated
Thu 04:26:00 PM 21.5177 -93.2955 67° East  Level Estimated
Thu 04:27:00 PM 21.5737 -93.1558 67° East  Level Estimated
Thu 04:28:00 PM 21.6295 -93.0159 67° East  Level Estimated
Thu 04:29:00 PM 21.6852 -92.8760 67° East  Level Estimated
Thu 04:30:00 PM 21.7409 -92.7359 67° East  Level Estimated
Thu 04:31:00 PM 21.7964 -92.5958 67° East  Level Estimated
Thu 04:32:00 PM 21.8517 -92.4555 67° East  Level Estimated
Thu 04:33:00 PM 21.9070 -92.3151 67° East  Level Estimated
Thu 04:34:00 PM 21.9621 -92.1746 67° East  Level Estimated
Thu 04:35:00 PM 22.0171 -92.0340 67° East  Level Estimated
Thu 04:36:00 PM 22.0720 -91.8933 67° East  Level Estimated
Thu 04:37:00 PM 22.1268 -91.7525 67° East  Level Estimated
Thu 04:38:00 PM 22.1814 -91.6115 67° East  Level Estimated
Thu 04:39:00 PM 22.2360 -91.4705 67° East  Level Estimated
Thu 04:40:00 PM 22.2904 -91.3293 67° East  Level Estimated
Thu 04:41:00 PM 22.3447 -91.1881 67° East  Level Estimated
Thu 04:42:00 PM 22.3988 -91.0467 67° East  Level Estimated
Thu 04:43:00 PM 22.4529 -90.9052 68° East  Level Estimated
Thu 04:44:00 PM 22.5068 -90.7636 68° East  Level Estimated
Thu 04:45:00 PM 22.5606 -90.6219 68° East  Level Estimated
Thu 04:46:00 PM 22.6143 -90.4801 68° East  Level Estimated
Thu 04:47:00 PM 22.6678 -90.3382 68° East  Level Estimated
Thu 04:48:00 PM 22.7212 -90.1962 68° East  Level Estimated
Thu 04:49:00 PM 22.7745 -90.0540 68° East  Level Estimated
Thu 04:50:00 PM 22.8277 -89.9118 68° East  Level Estimated
Thu 04:51:00 PM 22.8808 -89.7694 68° East  Level Estimated
Thu 04:52:00 PM 22.9337 -89.6269 68° East  Level Estimated
Thu 04:53:00 PM 22.9865 -89.4843 68° East  Level Estimated
Thu 04:54:00 PM 23.0391 -89.3416 68° East  Level Estimated
Thu 04:55:00 PM 23.0917 -89.1988 68° East  Level Estimated
Thu 04:56:00 PM 23.1441 -89.0559 68° East  Level Estimated
Thu 04:57:00 PM 23.1963 -88.9129 68° East  Level Estimated
Thu 04:58:00 PM 23.2485 -88.7697 68° East  Level Estimated
Thu 04:59:00 PM 23.3005 -88.6265 68° East  Level Estimated
Thu 05:00:00 PM 23.3524 -88.4831 68° East  Level Estimated
Thu 05:01:00 PM 23.4042 -88.3396 69° East  Level Estimated
Thu 05:02:00 PM 23.4558 -88.1960 69° East  Level Estimated
Thu 05:03:00 PM 23.5073 -88.0523 69° East  Level Estimated
Thu 05:04:00 PM 23.5586 -87.9085 69° East  Level Estimated
Thu 05:05:00 PM 23.6099 -87.7645 69° East  Level Estimated
Thu 05:06:00 PM 23.6610 -87.6205 69° East  Level Estimated
Thu 05:07:00 PM 23.7119 -87.4763 69° East  Level Estimated
Thu 05:08:00 PM 23.7628 -87.3321 69° East  Level Estimated
Thu 05:09:00 PM 23.8135 -87.1877 69° East  Level Estimated
Thu 05:10:00 PM 23.8640 -87.0432 69° East  Level Estimated
Thu 05:11:00 PM 23.9144 -86.8986 69° East  Level Estimated
Thu 05:12:00 PM 23.9647 -86.7539 69° East  Level Estimated
Thu 05:13:00 PM 24.0149 -86.6090 69° East  Level Estimated
Thu 05:14:00 PM 24.0649 -86.4641 69° East  Level Estimated
Thu 05:15:00 PM 24.1148 -86.3190 69° East  Level Estimated
Thu 05:16:00 PM 24.1645 -86.1739 69° East  Level Estimated
Thu 05:17:00 PM 24.2141 -86.0286 69° East  Level Estimated
Thu 05:18:00 PM 24.2636 -85.8832 70° East  Level Estimated
Thu 05:19:00 PM 24.3130 -85.7377 70° East  Level Estimated
Thu 05:20:00 PM 24.3621 -85.5921 70° East  Level Estimated
Thu 05:21:00 PM 24.4112 -85.4463 70° East  Level Estimated
Thu 05:22:00 PM 24.4601 -85.3005 70° East  Level Estimated
Thu 05:23:00 PM 24.5089 -85.1545 70° East  Level Estimated
Thu 05:24:00 PM 24.5575 -85.0084 70° East  Level Estimated
Thu 05:25:00 PM 24.6060 -84.8622 70° East  Level Estimated
Thu 05:26:00 PM 24.6543 -84.7159 70° East  Level Estimated
Thu 05:27:00 PM 24.7026 -84.5695 70° East  Level Estimated
Thu 05:28:00 PM 24.7506 -84.4230 70° East  Level Estimated
Thu 05:29:00 PM 24.7985 -84.2764 70° East  Level Estimated
Thu 05:30:00 PM 24.8463 -84.1296 70° East  Level Estimated
Thu 05:31:00 PM 24.8940 -83.9827 70° East  Level Estimated
Thu 05:32:00 PM 24.9415 -83.8357 70° East  Level Estimated
Thu 05:33:00 PM 24.9888 -83.6887 70° East  Level Estimated
Thu 05:34:00 PM 25.0360 -83.5414 70° East  Level Estimated
Thu 05:34:57 PM 24.1819 -82.7314 71° East 478 550 36,900  Level Miami Center
Thu 05:35:00 PM 25.0831 -83.3941 71° East  Level Estimated
Thu 05:36:00 PM 25.1300 -83.2467 71° East  Level Estimated
Thu 05:37:00 PM 25.1768 -83.0991 71° East  Level Estimated
Thu 05:38:00 PM 25.2234 -82.9515 71° East  Level Estimated
Thu 05:40:47 PM 24.7520 -82.0960 71° East 444 511 28,900  Level FlightAware ADS-B
Thu 05:41:32 PM 24.8420 -82.0790 10° North 437 503 27,200 -2,280 Descending FlightAware ADS-B
Thu 05:42:27 PM 24.9480 -82.0620 North 437 503 25,100 -1,920 Descending FlightAware ADS-B
Thu 05:43:12 PM 25.0410 -82.0450 North 427 491 24,000 -880 Descending FlightAware ADS-B
Thu 05:43:42 PM 25.0960 -82.0340 10° North 428 493 24,000  Level FlightAware ADS-B
Thu 05:44:32 PM 25.2070 -82.0140 North 427 491 24,000  Level FlightAware ADS-B
Thu 05:45:12 PM 25.2730 -82.0030 North 427 491 24,000 -92 Level FlightAware ADS-B
Thu 05:45:57 PM 25.3360 -81.9030 55° Northeast 24,000 -133 Level FlightAware ADS-B
Thu 05:46:42 PM 25.3570 -81.8070 76° East 435 501 23,800 -847 Descending FlightAware ADS-B
Thu 05:47:22 PM 25.3760 -81.7220 76° East 430 495 22,800 -1,694 Descending FlightAware ADS-B
Thu 05:48:07 PM 25.3970 -81.6260 76° East 423 487 21,400 -1,906 Descending FlightAware ADS-B
Thu 05:48:47 PM 25.4160 -81.5420 76° East 410 472 20,100 -1,875 Descending FlightAware ADS-B
Thu 05:49:27 PM 25.4330 -81.4630 77° East 393 452 18,900 -2,612 Descending FlightAware ADS-B
Thu 05:50:12 PM 25.4530 -81.3730 76° East 395 455 16,400 -3,035 Descending FlightAware ADS-B
Thu 05:50:52 PM 25.4700 -81.2980 76° East 372 428 14,600 -2,824 Descending FlightAware ADS-B
Thu 05:51:37 PM 25.4880 -81.2180 76° East 357 411 12,400 -2,541 Descending FlightAware ADS-B
Thu 05:52:17 PM 25.5040 -81.1470 76° East 358 412 11,000 -1,040 Descending FlightAware ADS-B
Thu 05:52:52 PM 25.5170 -81.0860 77° East 323 372 11,100 71 Climbing FlightAware ADS-B
Thu 05:53:42 PM 25.5340 -81.0080 76° East 314 361 11,100  Level FlightAware ADS-B
Thu 05:54:22 PM 25.5470 -80.9470 77° East 315 362 11,100  Level FlightAware ADS-B
Thu 05:55:07 PM 25.5670 -80.8770 72° East 310 357 11,100 -71 Level FlightAware ADS-B
Thu 05:55:47 PM 25.5960 -80.8210 60° Northeast 315 362 11,000 -120 Descending FlightAware ADS-B
Thu 05:55:57 PM 25.6100 -80.8130 27° Northeast 309 356 11,000 -480 Level FlightAware ADS-B
Thu 05:56:12 PM 25.6310 -80.8090 10° North 307 353 10,800 -1,300 Descending FlightAware ADS-B
Thu 05:56:57 PM 25.6950 -80.8020 North 295 339 9,700 -1,360 Descending FlightAware ADS-B
Thu 05:57:27 PM 25.7360 -80.7970 North 293 337 9,100 -764 Descending FlightAware ADS-B
Thu 05:57:52 PM 25.7710 -80.7930 North 294 338 9,000 -600 Descending FlightAware ADS-B
Thu 05:58:07 PM 25.7910 -80.7900 North 292 336 8,700 -1,500 Descending FlightAware ADS-B
Thu 05:58:32 PM 25.8240 -80.7860 North 294 338 8,000 -1,650 Descending FlightAware ADS-B
Thu 05:58:47 PM 25.8450 -80.7830 North 294 338 7,600 -1,467 Descending FlightAware ADS-B
Thu 05:59:17 PM 25.8830 -80.7790 North 289 333 6,900 -1,309 Descending FlightAware ADS-B
Thu 05:59:42 PM 25.9170 -80.7750 North 279 321 6,400 -960 Descending FlightAware ADS-B
Thu 06:00:07 PM 25.9460 -80.7700 North 267 307 6,100 -400 Descending FlightAware ADS-B
Thu 06:00:27 PM 25.9690 -80.7540 32° Northeast 285 328 6,100  Level FlightAware ADS-B
Thu 06:00:37 PM 25.9760 -80.7400 61° Northeast 286 329 6,100  Level FlightAware ADS-B
Thu 06:01:07 PM 25.9940 -80.7000 63° Northeast 286 329 6,100  Level FlightAware ADS-B
Thu 06:01:37 PM 26.0120 -80.6630 62° Northeast 276 318 6,100  Level FlightAware ADS-B
Thu 06:02:02 PM 26.0270 -80.6320 62° Northeast 250 288 6,100  Level FlightAware ADS-B
Thu 06:02:17 PM 26.0350 -80.6150 62° Northeast 248 285 6,100  Level FlightAware ADS-B
Thu 06:02:47 PM 26.0510 -80.5810 62° Northeast 252 290 6,100  Level FlightAware ADS-B
Thu 06:03:07 PM 26.0650 -80.5600 53° Northeast 245 282 6,100 -150 Level FlightAware ADS-B
Thu 06:03:27 PM 26.0830 -80.5460 35° Northeast 240 276 6,000  Descending FlightAware ADS-B
Thu 06:03:42 PM 26.1000 -80.5430 North 229 264 6,100 150 Climbing FlightAware ADS-B
Thu 06:04:07 PM 26.1270 -80.5430 360° North 229 264 6,100  Level FlightAware ADS-B
Thu 06:04:37 PM 26.1590 -80.5490 350° North 225 259 6,100  Level FlightAware ADS-B
Thu 06:04:52 PM 26.1680 -80.5620 308° West 219 252 6,100  Level FlightAware ADS-B
Thu 06:04:57 PM 26.1700 -80.5660 299° West 215 247 6,100  Level FlightAware ADS-B
Thu 06:05:27 PM 26.1540 -80.5980 241° Southwest 220 253 6,100  Level FlightAware ADS-B
Thu 06:06:42 PM 26.0980 -80.5430 139° Southeast 250 288 6,100  Level FlightAware ADS-B
Thu 06:07:52 PM 26.0780 -80.4570 104° East 236 272 6,100 -600 Level FlightAware ADS-B
Thu 06:09:02 PM 26.0780 -80.3830 90° East 190 219 4,700 -1,536 Descending FlightAware ADS-B
Thu 06:09:57 PM 26.0780 -80.3310 90° East 180 207 2,900 -1,380 Descending FlightAware ADS-B
Thu 06:10:42 PM 26.0780 -80.2930 90° East 172 198 2,400 -847 Descending FlightAware ADS-B
Thu 06:11:22 PM 26.0780 -80.2610 90° East 143 165 1,700 -857 Descending FlightAware ADS-B
Thu 06:11:52 PM 26.0770 -80.2390 93° East 127 146 1,400 -675 Descending FlightAware ADS-B
Thu 06:12:42 PM 26.0770 -80.2090 90° East 123 142 800 -600 Descending FlightAware ADS-B
Thu 06:13:02 PM 26.0770 -80.1980 90° East 123 142 700 -600 Descending FlightAware ADS-B
Thu 06:13:22 PM 26.0770 -80.1840 90° East 124 143 400 -436 Descending FlightAware ADS-B
Thu 06:13:57 PM 26.0770 -80.1620 90° East 125 144 300 -171 Descending FlightAware ADS-B
Thu 06:20:00 PM 26.0667 -80.1500 90° East  Level FlightAware Approximate
Thu 06:21:00 PM 26.0726 -80.1527 90° East  Level Estimated

Login

Don't have an account? Register now (free) for customized features, flight alerts, and more!